nws-alerts: Checking more than four warning/county codes can delay the loading of your pages. You should use a cron job to get the data.
EllijayWeather Station Historical Data
Daily Summary for December 29, 2018 Units:  Both    English   Metric
Daily Weekly Monthly Yearly Custom
  High: Low: Average:
Temperature: 59 °F /  15 °C 43.2 °F /  6.2 °C 49.5 °F /  9.7 °C
Dew Point: 50.9 °F /  10.5 °C 33.8 °F /  1 °C 45.7 °F /  7.6 °C
Humidity: 100% 39% 89%
Wind Speed: 8.1mph /  13km/h - 0.2mph /  0.3km/h
Wind Gust: 8mph /  12.9km/h - -
Wind- - WNW
Pressure: 30.30 in /  1026 hPa 30.15 in /  1020.9 hPa -
Precipitation: 0.03 in /  0.76 mm    
Historical Graphs
 
 
Tabular Data for December 29, 2018
Time Temperature Dew Point Pressure Wind Wind Speed Wind Gust Humidity Rainfall Rate (Hourly) solar
00:04 51.1 °F /  10.6 °C 50.7 °F /  10.4 °C 30.16in /  1021.2hPa Calm     99% 0in /  0mm meteobridge W/m2
00:09 50.9 °F /  10.5 °C 50.5 °F /  10.3 °C 30.16in /  1021.2hPa Calm     99% 0in /  0mm meteobridge W/m2
00:14 50.9 °F /  10.5 °C 50.5 °F /  10.3 °C 30.16in /  1021.2hPa Calm     99% 0in /  0mm meteobridge W/m2
00:19 51.1 °F /  10.6 °C 50.7 °F /  10.4 °C 30.16in /  1021.2hPa Calm     99% 0in /  0mm meteobridge W/m2
00:24 51.1 °F /  10.6 °C 50.7 °F /  10.4 °C 30.16in /  1021.2hPa Calm     99% 0in /  0mm meteobridge W/m2
00:29 50.9 °F /  10.5 °C 50.5 °F /  10.3 °C 30.16in /  1021.2hPa Calm     99% 0in /  0mm meteobridge W/m2
00:34 51.1 °F /  10.6 °C 50.7 °F /  10.4 °C 30.16in /  1021.2hPa Calm     99% 0in /  0mm meteobridge W/m2
00:39 51.1 °F /  10.6 °C 50.7 °F /  10.4 °C 30.16in /  1021.2hPa Calm     99% 0in /  0mm meteobridge W/m2
00:44 51.1 °F /  10.6 °C 50.7 °F /  10.4 °C 30.15in /  1020.9hPa Calm     99% 0in /  0mm meteobridge W/m2
00:49 51.1 °F /  10.6 °C 50.7 °F /  10.4 °C 30.15in /  1020.9hPa Calm     99% 0in /  0mm meteobridge W/m2
00:54 51.1 °F /  10.6 °C 50.7 °F /  10.4 °C 30.15in /  1020.9hPa Calm     99% 0in /  0mm meteobridge W/m2
00:59 51.1 °F /  10.6 °C 50.7 °F /  10.4 °C 30.16in /  1021.2hPa Calm     99% 0in /  0mm meteobridge W/m2
01:04 51.1 °F /  10.6 °C 50.7 °F /  10.4 °C 30.16in /  1021.2hPa Calm     99% 0in /  0mm meteobridge W/m2
01:09 51.1 °F /  10.6 °C 50.7 °F /  10.4 °C 30.17in /  1021.6hPa Calm     99% 0in /  0mm meteobridge W/m2
01:14 51.1 °F /  10.6 °C 50.7 °F /  10.4 °C 30.17in /  1021.6hPa Calm     99% 0in /  0mm meteobridge W/m2
01:19 51.1 °F /  10.6 °C 50.7 °F /  10.4 °C 30.17in /  1021.6hPa Calm     99% 0in /  0mm meteobridge W/m2
01:24 51.1 °F /  10.6 °C 50.7 °F /  10.4 °C 30.17in /  1021.6hPa Calm     99% 0in /  0mm meteobridge W/m2
01:29 51.1 °F /  10.6 °C 50.7 °F /  10.4 °C 30.16in /  1021.2hPa Calm     99% 0in /  0mm meteobridge W/m2
01:34 51.3 °F /  10.7 °C 50.9 °F /  10.5 °C 30.16in /  1021.2hPa Calm     99% 0in /  0mm meteobridge W/m2
01:39 51.3 °F /  10.7 °C 50.9 °F /  10.5 °C 30.16in /  1021.2hPa Calm     99% 0in /  0mm meteobridge W/m2
01:44 51.3 °F /  10.7 °C 50.9 °F /  10.5 °C 30.16in /  1021.2hPa Calm     99% 0in /  0mm meteobridge W/m2
01:48 51.3 °F /  10.7 °C 50.9 °F /  10.5 °C 30.17in /  1021.6hPa Calm     99% 0in /  0mm meteobridge W/m2
01:54 51.3 °F /  10.7 °C 50.9 °F /  10.5 °C 30.17in /  1021.6hPa Calm     99% 0in /  0mm meteobridge W/m2
01:59 51.3 °F /  10.7 °C 50.9 °F /  10.5 °C 30.17in /  1021.6hPa Calm     99% 0in /  0mm meteobridge W/m2
02:04 51.3 °F /  10.7 °C 50.9 °F /  10.5 °C 30.17in /  1021.6hPa Calm     99% 0in /  0mm meteobridge W/m2
02:09 51.3 °F /  10.7 °C 50.9 °F /  10.5 °C 30.17in /  1021.6hPa Calm     99% 0in /  0mm meteobridge W/m2
02:14 51.3 °F /  10.7 °C 50.9 °F /  10.5 °C 30.17in /  1021.6hPa Calm     99% 0in /  0mm meteobridge W/m2
02:19 51.3 °F /  10.7 °C 50.9 °F /  10.5 °C 30.17in /  1021.6hPa Calm     99% 0in /  0mm meteobridge W/m2
02:24 51.3 °F /  10.7 °C 50.9 °F /  10.5 °C 30.17in /  1021.6hPa Calm     99% 0in /  0mm meteobridge W/m2
02:29 51.3 °F /  10.7 °C 50.9 °F /  10.5 °C 30.17in /  1021.6hPa Calm     99% 0in /  0mm meteobridge W/m2
02:34 51.1 °F /  10.6 °C 50.7 °F /  10.4 °C 30.17in /  1021.6hPa Calm     99% 0in /  0mm meteobridge W/m2
02:39 51.1 °F /  10.6 °C 50.7 °F /  10.4 °C 30.17in /  1021.6hPa Calm     99% 0in /  0mm meteobridge W/m2
02:44 51.1 °F /  10.6 °C 50.7 °F /  10.4 °C 30.17in /  1021.6hPa Calm     99% 0in /  0mm meteobridge W/m2
02:49 51.1 °F /  10.6 °C 50.7 °F /  10.4 °C 30.17in /  1021.6hPa Calm     99% 0in /  0mm meteobridge W/m2
02:54 50.7 °F /  10.4 °C 50.4 °F /  10.2 °C 30.18in /  1021.9hPa Calm     99% 0in /  0mm meteobridge W/m2
02:59 50.5 °F /  10.3 °C 50.2 °F /  10.1 °C 30.17in /  1021.6hPa Calm     99% 0in /  0mm meteobridge W/m2
03:04 50.4 °F /  10.2 °C 50 °F /  10 °C 30.17in /  1021.6hPa Calm     99% 0in /  0mm meteobridge W/m2
03:09 50.2 °F /  10.1 °C 49.8 °F /  9.9 °C 30.17in /  1021.6hPa Calm     99% 0in /  0mm meteobridge W/m2
03:14 49.8 °F /  9.9 °C 49.5 °F /  9.7 °C 30.18in /  1021.9hPa Calm     99% 0in /  0mm meteobridge W/m2
03:19 49.6 °F /  9.8 °C 49.1 °F /  9.5 °C 30.18in /  1021.9hPa Calm     98% 0in /  0mm meteobridge W/m2
03:24 49.6 °F /  9.8 °C 49.5 °F /  9.7 °C 30.18in /  1021.9hPa Calm     99% 0in /  0mm meteobridge W/m2
03:29 49.3 °F /  9.6 °C 49.1 °F /  9.5 °C 30.18in /  1021.9hPa WNW 0.9mph /  1.4km/h 2mph /  3.2km/h 99% 0in /  0mm meteobridge W/m2
03:34 48.9 °F /  9.4 °C 48.4 °F /  9.1 °C 30.18in /  1021.9hPa Calm     98% 0in /  0mm meteobridge W/m2
03:39 48.7 °F /  9.3 °C 48.2 °F /  9 °C 30.18in /  1021.9hPa Calm     98% 0in /  0mm meteobridge W/m2
03:44 48.6 °F /  9.2 °C 48 °F /  8.9 °C 30.18in /  1021.9hPa Calm   1mph /  1.6km/h 98% 0in /  0mm meteobridge W/m2
03:49 48.2 °F /  9 °C 47.7 °F /  8.7 °C 30.19in /  1022.2hPa Calm   1mph /  1.6km/h 98% 0in /  0mm meteobridge W/m2
03:54 48 °F /  8.9 °C 47.5 °F /  8.6 °C 30.19in /  1022.2hPa Calm     98% 0in /  0mm meteobridge W/m2
03:59 47.8 °F /  8.8 °C 47.3 °F /  8.5 °C 30.19in /  1022.2hPa Calm     98% 0in /  0mm meteobridge W/m2
04:04 47.7 °F /  8.7 °C 47.1 °F /  8.4 °C 30.19in /  1022.2hPa Calm     98% 0in /  0mm meteobridge W/m2
04:09 47.7 °F /  8.7 °C 47.1 °F /  8.4 °C 30.19in /  1022.2hPa Calm     98% 0in /  0mm meteobridge W/m2
04:14 47.5 °F /  8.6 °C 46.9 °F /  8.3 °C 30.19in /  1022.2hPa Calm     98% 0in /  0mm meteobridge W/m2
04:19 47.3 °F /  8.5 °C 47.3 °F /  8.5 °C 30.19in /  1022.2hPa Calm     100% 0in /  0mm meteobridge W/m2
04:24 47.1 °F /  8.4 °C 46.6 °F /  8.1 °C 30.19in /  1022.2hPa Calm     98% 0in /  0mm meteobridge W/m2
04:29 46.9 °F /  8.3 °C 46.4 °F /  8 °C 30.19in /  1022.2hPa Calm     98% 0in /  0mm meteobridge W/m2
04:34 46.9 °F /  8.3 °C 46.4 °F /  8 °C 30.19in /  1022.2hPa Calm     98% 0in /  0mm meteobridge W/m2
04:39 46.8 °F /  8.2 °C 46.2 °F /  7.9 °C 30.20in /  1022.6hPa Calm     98% 0in /  0mm meteobridge W/m2
04:44 46.8 °F /  8.2 °C 46.2 °F /  7.9 °C 30.20in /  1022.6hPa Calm     98% 0in /  0mm meteobridge W/m2
04:49 46.6 °F /  8.1 °C 46 °F /  7.8 °C 30.20in /  1022.6hPa Calm     98% 0in /  0mm meteobridge W/m2
04:54 46.6 °F /  8.1 °C 46 °F /  7.8 °C 30.20in /  1022.6hPa Calm     98% 0in /  0mm meteobridge W/m2
04:59 46.4 °F /  8 °C 46.2 °F /  7.9 °C 30.20in /  1022.6hPa Calm     99% 0in /  0mm meteobridge W/m2
05:04 46.4 °F /  8 °C 46.2 °F /  7.9 °C 30.21in /  1022.9hPa Calm     99% 0in /  0mm meteobridge W/m2
05:09 46.2 °F /  7.9 °C 46 °F /  7.8 °C 30.21in /  1022.9hPa Calm     99% 0in /  0mm meteobridge W/m2
05:14 46.2 °F /  7.9 °C 46 °F /  7.8 °C 30.21in /  1022.9hPa Calm     99% 0in /  0mm meteobridge W/m2
05:19 46 °F /  7.8 °C 45.5 °F /  7.5 °C 30.21in /  1022.9hPa Calm     98% 0in /  0mm meteobridge W/m2
05:24 46 °F /  7.8 °C 45.5 °F /  7.5 °C 30.21in /  1022.9hPa Calm     98% 0in /  0mm meteobridge W/m2
05:29 45.9 °F /  7.7 °C 45.7 °F /  7.6 °C 30.21in /  1022.9hPa Calm     99% 0in /  0mm meteobridge W/m2
05:34 45.9 °F /  7.7 °C 45.7 °F /  7.6 °C 30.21in /  1022.9hPa Calm     99% 0in /  0mm meteobridge W/m2
05:39 45.7 °F /  7.6 °C 45.1 °F /  7.3 °C 30.22in /  1023.2hPa Calm   1mph /  1.6km/h 98% 0in /  0mm meteobridge W/m2
05:44 45.7 °F /  7.6 °C 45.1 °F /  7.3 °C 30.22in /  1023.2hPa Calm     98% 0in /  0mm meteobridge W/m2
05:49 45.3 °F /  7.4 °C 44.8 °F /  7.1 °C 30.22in /  1023.2hPa Calm     98% 0in /  0mm meteobridge W/m2
05:54 45.3 °F /  7.4 °C 45.1 °F /  7.3 °C 30.22in /  1023.2hPa Calm     99% 0in /  0mm meteobridge W/m2
05:59 45.1 °F /  7.3 °C 44.6 °F /  7 °C 30.22in /  1023.2hPa Calm     98% 0in /  0mm meteobridge W/m2
06:04 45 °F /  7.2 °C 44.4 °F /  6.9 °C 30.23in /  1023.6hPa Calm     98% 0in /  0mm meteobridge W/m2
06:09 44.8 °F /  7.1 °C 44.2 °F /  6.8 °C 30.23in /  1023.6hPa Calm     98% 0in /  0mm meteobridge W/m2
06:14 44.8 °F /  7.1 °C 44.2 °F /  6.8 °C 30.23in /  1023.6hPa Calm     98% 0in /  0mm meteobridge W/m2
06:19 44.4 °F /  6.9 °C 43.9 °F /  6.6 °C 30.24in /  1023.9hPa Calm     98% 0in /  0mm meteobridge W/m2
06:24 44.4 °F /  6.9 °C 43.9 °F /  6.6 °C 30.24in /  1023.9hPa Calm     98% 0in /  0mm meteobridge W/m2
06:29 44.2 °F /  6.8 °C 43.7 °F /  6.5 °C 30.24in /  1023.9hPa Calm     98% 0in /  0mm meteobridge W/m2
06:34 44.2 °F /  6.8 °C 43.7 °F /  6.5 °C 30.24in /  1023.9hPa Calm     98% 0in /  0mm meteobridge W/m2
06:39 44.2 °F /  6.8 °C 44.1 °F /  6.7 °C 30.24in /  1023.9hPa Calm     99% 0in /  0mm meteobridge W/m2
06:44 44.1 °F /  6.7 °C 43.9 °F /  6.6 °C 30.24in /  1023.9hPa Calm     99% 0in /  0mm meteobridge W/m2
06:49 44.1 °F /  6.7 °C 43.9 °F /  6.6 °C 30.24in /  1023.9hPa Calm     99% 0in /  0mm meteobridge W/m2
06:54 44.1 °F /  6.7 °C 43.9 °F /  6.6 °C 30.24in /  1023.9hPa Calm     99% 0in /  0mm meteobridge W/m2
06:59 43.9 °F /  6.6 °C 43.3 °F /  6.3 °C 30.24in /  1023.9hPa Calm     98% 0in /  0mm meteobridge W/m2
07:04 43.9 °F /  6.6 °C 43.3 °F /  6.3 °C 30.25in /  1024.3hPa Calm     98% 0in /  0mm meteobridge W/m2
07:09 43.9 °F /  6.6 °C 43.3 °F /  6.3 °C 30.25in /  1024.3hPa Calm     98% 0in /  0mm meteobridge W/m2
07:14 43.7 °F /  6.5 °C 43.5 °F /  6.4 °C 30.25in /  1024.3hPa Calm     99% 0in /  0mm meteobridge W/m2
07:19 43.5 °F /  6.4 °C 43.3 °F /  6.3 °C 30.25in /  1024.3hPa Calm     99% 0in /  0mm meteobridge W/m2
07:24 43.5 °F /  6.4 °C 43.3 °F /  6.3 °C 30.24in /  1023.9hPa Calm     99% 0in /  0mm meteobridge W/m2
07:29 43.5 °F /  6.4 °C 43.3 °F /  6.3 °C 30.25in /  1024.3hPa Calm     99% 0in /  0mm meteobridge W/m2
07:34 43.3 °F /  6.3 °C 43.2 °F /  6.2 °C 30.25in /  1024.3hPa Calm     99% 0in /  0mm meteobridge W/m2
07:39 43.3 °F /  6.3 °C 43.2 °F /  6.2 °C 30.26in /  1024.6hPa Calm     99% 0in /  0mm meteobridge W/m2
07:44 43.3 °F /  6.3 °C 43.2 °F /  6.2 °C 30.27in /  1024.9hPa Calm     99% 0in /  0mm meteobridge W/m2
07:49 43.3 °F /  6.3 °C 43.2 °F /  6.2 °C 30.27in /  1024.9hPa Calm     99% 0in /  0mm meteobridge W/m2
07:54 43.3 °F /  6.3 °C 43.2 °F /  6.2 °C 30.26in /  1024.6hPa Calm     99% 0in /  0mm meteobridge W/m2
07:59 43.3 °F /  6.3 °C 43.2 °F /  6.2 °C 30.27in /  1024.9hPa Calm     99% 0in /  0mm meteobridge W/m2
08:04 43.3 °F /  6.3 °C 43.2 °F /  6.2 °C 30.27in /  1024.9hPa Calm     99% 0in /  0mm meteobridge W/m2
08:09 43.3 °F /  6.3 °C 43.2 °F /  6.2 °C 30.27in /  1024.9hPa Calm     99% 0in /  0mm meteobridge W/m2
08:14 43.3 °F /  6.3 °C 43.2 °F /  6.2 °C 30.27in /  1024.9hPa Calm     99% 0in /  0mm meteobridge W/m2
08:19 43.3 °F /  6.3 °C 43.2 °F /  6.2 °C 30.27in /  1024.9hPa Calm     99% 0in /  0mm meteobridge W/m2
08:24 43.3 °F /  6.3 °C 43.2 °F /  6.2 °C 30.27in /  1024.9hPa Calm     99% 0in /  0mm meteobridge W/m2
08:29 43.3 °F /  6.3 °C 43.2 °F /  6.2 °C 30.28in /  1025.3hPa Calm     99% 0in /  0mm meteobridge W/m2
08:34 43.3 °F /  6.3 °C 43.2 °F /  6.2 °C 30.28in /  1025.3hPa Calm     99% 0in /  0mm meteobridge W/m2
08:39 43.2 °F /  6.2 °C 43 °F /  6.1 °C 30.28in /  1025.3hPa Calm     99% 0in /  0mm meteobridge W/m2
08:44 43.3 °F /  6.3 °C 43.2 °F /  6.2 °C 30.28in /  1025.3hPa Calm     99% 0in /  0mm meteobridge W/m2
08:49 43.3 °F /  6.3 °C 43.2 °F /  6.2 °C 30.29in /  1025.6hPa Calm     99% 0in /  0mm meteobridge W/m2
08:54 43.5 °F /  6.4 °C 43.3 °F /  6.3 °C 30.29in /  1025.6hPa Calm     99% 0in /  0mm meteobridge W/m2
08:59 43.9 °F /  6.6 °C 43.7 °F /  6.5 °C 30.29in /  1025.6hPa Calm     99% 0in /  0mm meteobridge W/m2
09:04 44.1 °F /  6.7 °C 43.9 °F /  6.6 °C 30.29in /  1025.6hPa Calm     99% 0in /  0mm meteobridge W/m2
09:09 44.4 °F /  6.9 °C 44.2 °F /  6.8 °C 30.29in /  1025.6hPa Calm     99% 0in /  0mm meteobridge W/m2
09:14 44.8 °F /  7.1 °C 44.6 °F /  7 °C 30.29in /  1025.6hPa Calm     99% 0in /  0mm meteobridge W/m2
09:19 45.1 °F /  7.3 °C 45 °F /  7.2 °C 30.29in /  1025.6hPa Calm     99% 0in /  0mm meteobridge W/m2
09:24 45.3 °F /  7.4 °C 45.1 °F /  7.3 °C 30.29in /  1025.6hPa Calm     99% 0in /  0mm meteobridge W/m2
09:29 45.9 °F /  7.7 °C 45.7 °F /  7.6 °C 30.29in /  1025.6hPa Calm     99% 0in /  0mm meteobridge W/m2
09:34 46.2 °F /  7.9 °C 46 °F /  7.8 °C 30.30in /  1026hPa Calm     99% 0in /  0mm meteobridge W/m2
09:39 46.6 °F /  8.1 °C 46.6 °F /  8.1 °C 30.29in /  1025.6hPa Calm     100% 0in /  0mm meteobridge W/m2
09:44 46.9 °F /  8.3 °C 46.8 °F /  8.2 °C 30.29in /  1025.6hPa Calm     99% 0in /  0mm meteobridge W/m2
09:49 47.3 °F /  8.5 °C 47.3 °F /  8.5 °C 30.30in /  1026hPa Calm     100% 0in /  0mm meteobridge W/m2
09:54 47.7 °F /  8.7 °C 47.5 °F /  8.6 °C 30.30in /  1026hPa Calm     99% 0in /  0mm meteobridge W/m2
09:59 48 °F /  8.9 °C 48 °F /  8.9 °C 30.30in /  1026hPa Calm     100% 0in /  0mm meteobridge W/m2
10:04 48.4 °F /  9.1 °C 48.2 °F /  9 °C 30.30in /  1026hPa Calm     99% 0in /  0mm meteobridge W/m2
10:09 48.7 °F /  9.3 °C 48.6 °F /  9.2 °C 30.30in /  1026hPa Calm     99% 0in /  0mm meteobridge W/m2
10:14 48.9 °F /  9.4 °C 48.9 °F /  9.4 °C 30.30in /  1026hPa Calm   2mph /  3.2km/h 100% 0in /  0mm meteobridge W/m2
10:19 49.3 °F /  9.6 °C 49.3 °F /  9.6 °C 30.30in /  1026hPa Calm     100% 0in /  0mm meteobridge W/m2
10:24 49.3 °F /  9.6 °C 49.3 °F /  9.6 °C 30.30in /  1026hPa Calm     100% 0in /  0mm meteobridge W/m2
10:29 49.5 °F /  9.7 °C 49.3 °F /  9.6 °C 30.30in /  1026hPa Calm     99% 0in /  0mm meteobridge W/m2
10:34 49.6 °F /  9.8 °C 49.6 °F /  9.8 °C 30.30in /  1026hPa Calm   1mph /  1.6km/h 100% 0in /  0mm meteobridge W/m2
10:39 49.6 °F /  9.8 °C 49.6 °F /  9.8 °C 30.30in /  1026hPa Calm     100% 0in /  0mm meteobridge W/m2
10:44 49.8 °F /  9.9 °C 49.8 °F /  9.9 °C 30.30in /  1026hPa Calm   1mph /  1.6km/h 100% 0in /  0mm meteobridge W/m2
10:49 49.8 °F /  9.9 °C 49.5 °F /  9.7 °C 30.30in /  1026hPa WNW 0.9mph /  1.4km/h 1mph /  1.6km/h 99% 0in /  0mm meteobridge W/m2
10:54 50 °F /  10 °C 49.6 °F /  9.8 °C 30.30in /  1026hPa Calm     99% 0in /  0mm meteobridge W/m2
10:59 50.2 °F /  10.1 °C 49.6 °F /  9.8 °C 30.30in /  1026hPa Calm   3mph /  4.8km/h 98% 0in /  0mm meteobridge W/m2
11:04 50.4 °F /  10.2 °C 49.8 °F /  9.9 °C 30.30in /  1026hPa Calm     98% 0in /  0mm meteobridge W/m2
11:09 50.4 °F /  10.2 °C 49.5 °F /  9.7 °C 30.30in /  1026hPa Calm   3mph /  4.8km/h 97% 0in /  0mm meteobridge W/m2
11:14 50.5 °F /  10.3 °C 49.1 °F /  9.5 °C 30.29in /  1025.6hPa North 2mph /  3.2km/h 5mph /  8km/h 95% 0in /  0mm meteobridge W/m2
11:19 50.5 °F /  10.3 °C 49.5 °F /  9.7 °C 30.29in /  1025.6hPa Calm     96% 0in /  0mm meteobridge W/m2
11:24 50.7 °F /  10.4 °C 49.1 °F /  9.5 °C 30.28in /  1025.3hPa NW 4.9mph /  7.9km/h 6mph /  9.7km/h 94% 0in /  0mm meteobridge W/m2
11:29 51.1 °F /  10.6 °C 49.6 °F /  9.8 °C 30.27in /  1024.9hPa Calm     95% 0in /  0mm meteobridge W/m2
11:34 51.3 °F /  10.7 °C 48.4 °F /  9.1 °C 30.27in /  1024.9hPa NNW 4mph /  6.4km/h 6mph /  9.7km/h 90% 0in /  0mm meteobridge W/m2
11:39 51.6 °F /  10.9 °C 48.7 °F /  9.3 °C 30.27in /  1024.9hPa Calm   1mph /  1.6km/h 90% 0in /  0mm meteobridge W/m2
11:44 51.6 °F /  10.9 °C 48.6 °F /  9.2 °C 30.26in /  1024.6hPa NW 2mph /  3.2km/h 5mph /  8km/h 89% 0in /  0mm meteobridge W/m2
11:49 52 °F /  11.1 °C 48.2 °F /  9 °C 30.26in /  1024.6hPa NE 8.1mph /  13km/h 8mph /  12.9km/h 87% 0in /  0mm meteobridge W/m2
11:54 52.3 °F /  11.3 °C 48.2 °F /  9 °C 30.26in /  1024.6hPa NNW 0.9mph /  1.4km/h 3mph /  4.8km/h 86% 0in /  0mm meteobridge W/m2
11:59 52.7 °F /  11.5 °C 48 °F /  8.9 °C 30.26in /  1024.6hPa Calm     84% 0in /  0mm meteobridge W/m2
12:04 52.9 °F /  11.6 °C 48.2 °F /  9 °C 30.26in /  1024.6hPa NNW 2mph /  3.2km/h 3mph /  4.8km/h 84% 0in /  0mm meteobridge W/m2
12:09 53.2 °F /  11.8 °C 47.3 °F /  8.5 °C 30.25in /  1024.3hPa Calm   5mph /  8km/h 80% 0in /  0mm meteobridge W/m2
12:14 53.4 °F /  11.9 °C 47.1 °F /  8.4 °C 30.25in /  1024.3hPa Calm   4mph /  6.4km/h 79% 0in /  0mm meteobridge W/m2
12:19 53.6 °F /  12 °C 46.9 °F /  8.3 °C 30.25in /  1024.3hPa Calm   1mph /  1.6km/h 78% 0in /  0mm meteobridge W/m2
12:23 53.8 °F /  12.1 °C 47.5 °F /  8.6 °C 30.25in /  1024.3hPa NW 2.9mph /  4.7km/h 3mph /  4.8km/h 79% 0in /  0mm meteobridge W/m2
12:29 53.8 °F /  12.1 °C 47.5 °F /  8.6 °C 30.24in /  1023.9hPa Calm   2mph /  3.2km/h 79% 0in /  0mm meteobridge W/m2
12:34 53.8 °F /  12.1 °C 47.1 °F /  8.4 °C 30.24in /  1023.9hPa Calm   3mph /  4.8km/h 78% 0in /  0mm meteobridge W/m2
12:39 54 °F /  12.2 °C 46.9 °F /  8.3 °C 30.24in /  1023.9hPa Calm   3mph /  4.8km/h 77% 0in /  0mm meteobridge W/m2
12:44 54 °F /  12.2 °C 48.2 °F /  9 °C 30.23in /  1023.6hPa NW 2mph /  3.2km/h 3mph /  4.8km/h 81% 0in /  0mm meteobridge W/m2
12:49 54.1 °F /  12.3 °C 48.4 °F /  9.1 °C 30.23in /  1023.6hPa Calm   1mph /  1.6km/h 81% 0in /  0mm meteobridge W/m2
12:54 54.1 °F /  12.3 °C 47.5 °F /  8.6 °C 30.23in /  1023.6hPa Calm   3mph /  4.8km/h 78% 0in /  0mm meteobridge W/m2
12:59 54.5 °F /  12.5 °C 45.7 °F /  7.6 °C 30.22in /  1023.2hPa Calm   2mph /  3.2km/h 72% 0in /  0mm meteobridge W/m2
13:04 54.9 °F /  12.7 °C 46.8 °F /  8.2 °C 30.23in /  1023.6hPa Calm     74% 0in /  0mm meteobridge W/m2
13:09 55 °F /  12.8 °C 46.6 °F /  8.1 °C 30.23in /  1023.6hPa Calm     73% 0in /  0mm meteobridge W/m2
13:14 55 °F /  12.8 °C 43.2 °F /  6.2 °C 30.23in /  1023.6hPa WNW 0.9mph /  1.4km/h 3mph /  4.8km/h 64% 0in /  0mm meteobridge W/m2
13:19 55.4 °F /  13 °C 43 °F /  6.1 °C 30.23in /  1023.6hPa NNW 0.9mph /  1.4km/h 4mph /  6.4km/h 63% 0in /  0mm meteobridge W/m2
13:24 55.8 °F /  13.2 °C 44.2 °F /  6.8 °C 30.23in /  1023.6hPa Calm   1mph /  1.6km/h 65% 0in /  0mm meteobridge W/m2
13:29 55.8 °F /  13.2 °C 41.7 °F /  5.4 °C 30.22in /  1023.2hPa NW 0.9mph /  1.4km/h 5mph /  8km/h 59% 0in /  0mm meteobridge W/m2
13:34 56.1 °F /  13.4 °C 41.9 °F /  5.5 °C 30.22in /  1023.2hPa West 4mph /  6.4km/h 5mph /  8km/h 59% 0in /  0mm meteobridge W/m2
13:39 56.5 °F /  13.6 °C 38.7 °F /  3.7 °C 30.22in /  1023.2hPa Calm   6mph /  9.7km/h 51% 0in /  0mm meteobridge W/m2
13:44 56.8 °F /  13.8 °C 37.4 °F /  3 °C 30.22in /  1023.2hPa Calm   7mph /  11.3km/h 48% 0in /  0mm meteobridge W/m2
13:49 57 °F /  13.9 °C 38.5 °F /  3.6 °C 30.21in /  1022.9hPa Calm   5mph /  8km/h 50% 0in /  0mm meteobridge W/m2
13:54 57.2 °F /  14 °C 36 °F /  2.2 °C 30.22in /  1023.2hPa Calm     45% 0in /  0mm meteobridge W/m2
13:59 57.6 °F /  14.2 °C 37.4 °F /  3 °C 30.21in /  1022.9hPa Calm   4mph /  6.4km/h 47% 0in /  0mm meteobridge W/m2
14:04 57.9 °F /  14.4 °C 36.1 °F /  2.3 °C 30.21in /  1022.9hPa Calm   2mph /  3.2km/h 44% 0in /  0mm meteobridge W/m2
14:09 58.3 °F /  14.6 °C 37 °F /  2.8 °C 30.21in /  1022.9hPa Calm   3mph /  4.8km/h 45% 0in /  0mm meteobridge W/m2
14:14 58.3 °F /  14.6 °C 38.1 °F /  3.4 °C 30.21in /  1022.9hPa Calm     47% 0in /  0mm meteobridge W/m2
14:19 58.6 °F /  14.8 °C 40.6 °F /  4.8 °C 30.21in /  1022.9hPa Calm     51% 0in /  0mm meteobridge W/m2
14:24 58.6 °F /  14.8 °C 39.6 °F /  4.2 °C 30.22in /  1023.2hPa NW 0.9mph /  1.4km/h 1mph /  1.6km/h 49% 0in /  0mm meteobridge W/m2
14:29 58.6 °F /  14.8 °C 37.9 °F /  3.3 °C 30.22in /  1023.2hPa Calm   4mph /  6.4km/h 46% 0in /  0mm meteobridge W/m2
14:34 58.8 °F /  14.9 °C 35.2 °F /  1.8 °C 30.22in /  1023.2hPa Calm   1mph /  1.6km/h 41% 0in /  0mm meteobridge W/m2
14:39 59 °F /  15 °C 34.7 °F /  1.5 °C 30.22in /  1023.2hPa Calm   1mph /  1.6km/h 40% 0in /  0mm meteobridge W/m2
14:44 59 °F /  15 °C 37 °F /  2.8 °C 30.22in /  1023.2hPa Calm   5mph /  8km/h 44% 0in /  0mm meteobridge W/m2
14:49 59 °F /  15 °C 39.4 °F /  4.1 °C 30.22in /  1023.2hPa Calm   2mph /  3.2km/h 48% 0in /  0mm meteobridge W/m2
14:54 58.6 °F /  14.8 °C 33.8 °F /  1 °C 30.22in /  1023.2hPa Calm   5mph /  8km/h 39% 0in /  0mm meteobridge W/m2
14:59 58.6 °F /  14.8 °C 33.8 °F /  1 °C 30.22in /  1023.2hPa Calm   5mph /  8km/h 39% 0in /  0mm meteobridge W/m2
15:04 58.6 °F /  14.8 °C 35.6 °F /  2 °C 30.22in /  1023.2hPa Calm   6mph /  9.7km/h 42% 0in /  0mm meteobridge W/m2
15:09 58.5 °F /  14.7 °C 38.3 °F /  3.5 °C 30.22in /  1023.2hPa Calm     47% 0in /  0mm meteobridge W/m2
15:14 58.5 °F /  14.7 °C 35.4 °F /  1.9 °C 30.22in /  1023.2hPa NNW 6mph /  9.7km/h 6mph /  9.7km/h 42% 0in /  0mm meteobridge W/m2
15:19 58.6 °F /  14.8 °C 35.1 °F /  1.7 °C 30.22in /  1023.2hPa Calm     41% 0in /  0mm meteobridge W/m2
15:24 58.8 °F /  14.9 °C 35.8 °F /  2.1 °C 30.22in /  1023.2hPa Calm     42% 0in /  0mm meteobridge W/m2
15:29 59 °F /  15 °C 36.5 °F /  2.5 °C 30.21in /  1022.9hPa NNW 0.9mph /  1.4km/h 2mph /  3.2km/h 43% 0in /  0mm meteobridge W/m2
15:34 59 °F /  15 °C 36 °F /  2.2 °C 30.22in /  1023.2hPa Calm   1mph /  1.6km/h 42% 0in /  0mm meteobridge W/m2
15:39 59 °F /  15 °C 39.4 °F /  4.1 °C 30.22in /  1023.2hPa Calm   2mph /  3.2km/h 48% 0in /  0mm meteobridge W/m2
15:44 58.8 °F /  14.9 °C 36.3 °F /  2.4 °C 30.22in /  1023.2hPa Calm   1mph /  1.6km/h 43% 0in /  0mm meteobridge W/m2
15:49 58.6 °F /  14.8 °C 40.6 °F /  4.8 °C 30.22in /  1023.2hPa Calm     51% 0in /  0mm meteobridge W/m2
15:54 58.5 °F /  14.7 °C 41.4 °F /  5.2 °C 30.22in /  1023.2hPa Calm     53% 0in /  0mm meteobridge W/m2
15:59 58.1 °F /  14.5 °C 39 °F /  3.9 °C 30.22in /  1023.2hPa Calm     49% 0in /  0mm meteobridge W/m2
16:04 57.6 °F /  14.2 °C 40.1 °F /  4.5 °C 30.22in /  1023.2hPa Calm     52% 0in /  0mm meteobridge W/m2
16:09 57.4 °F /  14.1 °C 44.4 °F /  6.9 °C 30.22in /  1023.2hPa Calm     62% 0in /  0mm meteobridge W/m2
16:14 56.8 °F /  13.8 °C 43.5 °F /  6.4 °C 30.22in /  1023.2hPa Calm     61% 0in /  0mm meteobridge W/m2
16:19 56.5 °F /  13.6 °C 47.1 °F /  8.4 °C 30.22in /  1023.2hPa Calm     71% 0in /  0mm meteobridge W/m2
16:24 56.3 °F /  13.5 °C 47.8 °F /  8.8 °C 30.22in /  1023.2hPa Calm     73% 0in /  0mm meteobridge W/m2
16:28 56.1 °F /  13.4 °C 48 °F /  8.9 °C 30.23in /  1023.6hPa Calm     74% 0in /  0mm meteobridge W/m2
16:34 55.9 °F /  13.3 °C 48.6 °F /  9.2 °C 30.23in /  1023.6hPa Calm     76% 0in /  0mm meteobridge W/m2
16:39 55.8 °F /  13.2 °C 48.4 °F /  9.1 °C 30.23in /  1023.6hPa Calm     76% 0in /  0mm meteobridge W/m2
16:44 55.4 °F /  13 °C 48.4 °F /  9.1 °C 30.23in /  1023.6hPa Calm     77% 0in /  0mm meteobridge W/m2
16:49 55 °F /  12.8 °C 48 °F /  8.9 °C 30.22in /  1023.2hPa Calm     77% 0in /  0mm meteobridge W/m2
16:54 54.9 °F /  12.7 °C 48.7 °F /  9.3 °C 30.23in /  1023.6hPa Calm     80% 0in /  0mm meteobridge W/m2
16:59 54.7 °F /  12.6 °C 48.6 °F /  9.2 °C 30.23in /  1023.6hPa Calm     80% 0in /  0mm meteobridge W/m2
17:04 54.3 °F /  12.4 °C 48.6 °F /  9.2 °C 30.23in /  1023.6hPa Calm     81% 0in /  0mm meteobridge W/m2
17:09 54 °F /  12.2 °C 48.6 °F /  9.2 °C 30.23in /  1023.6hPa Calm     82% 0in /  0mm meteobridge W/m2
17:14 53.6 °F /  12 °C 48.2 °F /  9 °C 30.23in /  1023.6hPa Calm     82% 0in /  0mm meteobridge W/m2
17:19 53.2 °F /  11.8 °C 47.8 °F /  8.8 °C 30.23in /  1023.6hPa Calm     82% 0in /  0mm meteobridge W/m2
17:24 52.9 °F /  11.6 °C 47.8 °F /  8.8 °C 30.23in /  1023.6hPa Calm     83% 0in /  0mm meteobridge W/m2
17:29 52.7 °F /  11.5 °C 47.7 °F /  8.7 °C 30.23in /  1023.6hPa Calm     83% 0in /  0mm meteobridge W/m2
17:34 52.3 °F /  11.3 °C 47.3 °F /  8.5 °C 30.24in /  1023.9hPa Calm     83% 0in /  0mm meteobridge W/m2
17:39 52.2 °F /  11.2 °C 47.5 °F /  8.6 °C 30.24in /  1023.9hPa Calm     84% 0in /  0mm meteobridge W/m2
17:44 51.6 °F /  10.9 °C 47.3 °F /  8.5 °C 30.23in /  1023.6hPa Calm     85% 0in /  0mm meteobridge W/m2
17:49 51.3 °F /  10.7 °C 46.9 °F /  8.3 °C 30.23in /  1023.6hPa Calm     85% 0in /  0mm meteobridge W/m2
17:54 50.9 °F /  10.5 °C 46.9 °F /  8.3 °C 30.23in /  1023.6hPa Calm     86% 0in /  0mm meteobridge W/m2
17:59 50.5 °F /  10.3 °C 46.6 °F /  8.1 °C 30.23in /  1023.6hPa Calm     86% 0in /  0mm meteobridge W/m2
18:04 50.2 °F /  10.1 °C 46.4 °F /  8 °C 30.23in /  1023.6hPa Calm     87% 0in /  0mm meteobridge W/m2
18:09 50 °F /  10 °C 46.2 °F /  7.9 °C 30.24in /  1023.9hPa Calm     87% 0in /  0mm meteobridge W/m2
18:14 49.6 °F /  9.8 °C 46.2 °F /  7.9 °C 30.24in /  1023.9hPa Calm     88% 0in /  0mm meteobridge W/m2
18:19 49.3 °F /  9.6 °C 46.2 °F /  7.9 °C 30.24in /  1023.9hPa Calm     89% 0in /  0mm meteobridge W/m2
18:24 48.9 °F /  9.4 °C 45.9 °F /  7.7 °C 30.24in /  1023.9hPa Calm     89% 0in /  0mm meteobridge W/m2
18:29 48.7 °F /  9.3 °C 45.7 °F /  7.6 °C 30.23in /  1023.6hPa Calm     89% 0in /  0mm meteobridge W/m2
18:34 48.4 °F /  9.1 °C 45.5 °F /  7.5 °C 30.24in /  1023.9hPa Calm     90% 0in /  0mm meteobridge W/m2
18:39 48 °F /  8.9 °C 45.5 °F /  7.5 °C 30.24in /  1023.9hPa Calm     91% 0in /  0mm meteobridge W/m2
18:44 47.8 °F /  8.8 °C 45.3 °F /  7.4 °C 30.24in /  1023.9hPa Calm     91% 0in /  0mm meteobridge W/m2
18:49 47.7 °F /  8.7 °C 45.1 °F /  7.3 °C 30.24in /  1023.9hPa Calm     91% 0in /  0mm meteobridge W/m2
18:54 47.7 °F /  8.7 °C 45.5 °F /  7.5 °C 30.25in /  1024.3hPa Calm     92% 0in /  0mm meteobridge W/m2
18:59 47.5 °F /  8.6 °C 45.3 °F /  7.4 °C 30.24in /  1023.9hPa Calm     92% 0in /  0mm meteobridge W/m2
19:04 47.3 °F /  8.5 °C 45.1 °F /  7.3 °C 30.24in /  1023.9hPa Calm     92% 0in /  0mm meteobridge W/m2
19:09 47.1 °F /  8.4 °C 45 °F /  7.2 °C 30.25in /  1024.3hPa Calm     92% 0in /  0mm meteobridge W/m2
19:14 47.1 °F /  8.4 °C 45 °F /  7.2 °C 30.25in /  1024.3hPa Calm     92% 0in /  0mm meteobridge W/m2
19:19 46.9 °F /  8.3 °C 44.8 °F /  7.1 °C 30.25in /  1024.3hPa Calm     92% 0in /  0mm meteobridge W/m2
19:24 46.8 °F /  8.2 °C 44.6 °F /  7 °C 30.25in /  1024.3hPa Calm     92% 0in /  0mm meteobridge W/m2
19:29 46.6 °F /  8.1 °C 44.6 °F /  7 °C 30.26in /  1024.6hPa Calm     93% 0in /  0mm meteobridge W/m2
19:34 46.2 °F /  7.9 °C 44.2 °F /  6.8 °C 30.25in /  1024.3hPa Calm     93% 0in /  0mm meteobridge W/m2
19:39 46 °F /  7.8 °C 44.1 °F /  6.7 °C 30.25in /  1024.3hPa Calm     93% 0in /  0mm meteobridge W/m2
19:44 46 °F /  7.8 °C 44.4 °F /  6.9 °C 30.25in /  1024.3hPa Calm     94% 0in /  0mm meteobridge W/m2
19:49 45.9 °F /  7.7 °C 44.2 °F /  6.8 °C 30.25in /  1024.3hPa Calm     94% 0in /  0mm meteobridge W/m2
19:54 45.9 °F /  7.7 °C 44.2 °F /  6.8 °C 30.25in /  1024.3hPa Calm     94% 0in /  0mm meteobridge W/m2
19:59 45.7 °F /  7.6 °C 44.1 °F /  6.7 °C 30.24in /  1023.9hPa Calm     94% 0in /  0mm meteobridge W/m2
20:04 45.7 °F /  7.6 °C 44.1 °F /  6.7 °C 30.24in /  1023.9hPa Calm     94% 0in /  0mm meteobridge W/m2
20:09 45.7 °F /  7.6 °C 44.4 °F /  6.9 °C 30.24in /  1023.9hPa Calm     95% 0in /  0mm meteobridge W/m2
20:14 45.7 °F /  7.6 °C 44.4 °F /  6.9 °C 30.24in /  1023.9hPa Calm     95% 0in /  0mm meteobridge W/m2
20:19 45.7 °F /  7.6 °C 44.4 °F /  6.9 °C 30.24in /  1023.9hPa Calm     95% 0in /  0mm meteobridge W/m2
20:24 45.7 °F /  7.6 °C 44.4 °F /  6.9 °C 30.23in /  1023.6hPa Calm     95% 0in /  0mm meteobridge W/m2
20:29 45.7 °F /  7.6 °C 44.4 °F /  6.9 °C 30.24in /  1023.9hPa Calm     95% 0in /  0mm meteobridge W/m2
20:34 45.7 °F /  7.6 °C 44.4 °F /  6.9 °C 30.24in /  1023.9hPa Calm     95% 0in /  0mm meteobridge W/m2
20:38 45.7 °F /  7.6 °C 44.4 °F /  6.9 °C 30.24in /  1023.9hPa Calm     95% 0in /  0mm meteobridge W/m2
20:44 45.7 °F /  7.6 °C 44.6 °F /  7 °C 30.23in /  1023.6hPa Calm     96% 0in /  0mm meteobridge W/m2
20:49 45.7 °F /  7.6 °C 44.4 °F /  6.9 °C 30.24in /  1023.9hPa Calm     95% 0in /  0mm meteobridge W/m2
20:54 45.7 °F /  7.6 °C 44.6 °F /  7 °C 30.23in /  1023.6hPa Calm     96% 0in /  0mm meteobridge W/m2
20:59 45.9 °F /  7.7 °C 44.8 °F /  7.1 °C 30.24in /  1023.9hPa Calm     96% 0in /  0mm meteobridge W/m2
21:04 45.9 °F /  7.7 °C 44.8 °F /  7.1 °C 30.23in /  1023.6hPa Calm     96% 0in /  0mm meteobridge W/m2
21:09 45.9 °F /  7.7 °C 44.8 °F /  7.1 °C 30.23in /  1023.6hPa Calm     96% 0in /  0mm meteobridge W/m2
21:14 45.9 °F /  7.7 °C 44.8 °F /  7.1 °C 30.23in /  1023.6hPa Calm     96% 0in /  0mm meteobridge W/m2
21:19 45.9 °F /  7.7 °C 44.8 °F /  7.1 °C 30.24in /  1023.9hPa Calm     96% 0in /  0mm meteobridge W/m2
21:24 45.9 °F /  7.7 °C 44.8 °F /  7.1 °C 30.24in /  1023.9hPa Calm     96% 0in /  0mm meteobridge W/m2
21:29 46 °F /  7.8 °C 45 °F /  7.2 °C 30.24in /  1023.9hPa Calm     96% 0in /  0mm meteobridge W/m2
21:34 45.9 °F /  7.7 °C 44.8 °F /  7.1 °C 30.24in /  1023.9hPa Calm     96% 0in /  0mm meteobridge W/m2
21:39 46 °F /  7.8 °C 45 °F /  7.2 °C 30.25in /  1024.3hPa Calm     96% 0in /  0mm meteobridge W/m2
21:44 46 °F /  7.8 °C 45 °F /  7.2 °C 30.25in /  1024.3hPa Calm     96% 0in /  0mm meteobridge W/m2
21:49 46 °F /  7.8 °C 45 °F /  7.2 °C 30.26in /  1024.6hPa Calm     96% 0in /  0mm meteobridge W/m2
21:54 46 °F /  7.8 °C 45 °F /  7.2 °C 30.25in /  1024.3hPa Calm     96% 0in /  0mm meteobridge W/m2
21:59 46.2 °F /  7.9 °C 45.1 °F /  7.3 °C 30.25in /  1024.3hPa Calm     96% 0in /  0mm meteobridge W/m2
22:04 46.2 °F /  7.9 °C 45.1 °F /  7.3 °C 30.26in /  1024.6hPa Calm     96% 0in /  0mm meteobridge W/m2
22:09 46.2 °F /  7.9 °C 45.1 °F /  7.3 °C 30.27in /  1024.9hPa Calm     96% 0in /  0mm meteobridge W/m2
22:14 46.4 °F /  8 °C 45.3 °F /  7.4 °C 30.28in /  1025.3hPa Calm     96% 0in /  0mm meteobridge W/m2
22:19 46.4 °F /  8 °C 45.3 °F /  7.4 °C 30.28in /  1025.3hPa Calm     96% 0in /  0mm meteobridge W/m2
22:24 46.6 °F /  8.1 °C 45.5 °F /  7.5 °C 30.29in /  1025.6hPa Calm     96% 0in /  0mm meteobridge W/m2
22:29 46.6 °F /  8.1 °C 45.5 °F /  7.5 °C 30.28in /  1025.3hPa Calm     96% 0in /  0mm meteobridge W/m2
22:34 46.8 °F /  8.2 °C 45.7 °F /  7.6 °C 30.28in /  1025.3hPa Calm     96% 0in /  0mm meteobridge W/m2
22:39 46.8 °F /  8.2 °C 46 °F /  7.8 °C 30.28in /  1025.3hPa Calm     97% 0in /  0mm meteobridge W/m2
22:44 46.8 °F /  8.2 °C 45.7 °F /  7.6 °C 30.27in /  1024.9hPa Calm     96% 0in /  0mm meteobridge W/m2
22:49 46.8 °F /  8.2 °C 45.7 °F /  7.6 °C 30.26in /  1024.6hPa Calm     96% 0.01in /  0.25mm meteobridge W/m2
22:54 46.6 °F /  8.1 °C 45.5 °F /  7.5 °C 30.26in /  1024.6hPa Calm     96% 0.01in /  0.25mm meteobridge W/m2
22:59 46.6 °F /  8.1 °C 45.9 °F /  7.7 °C 30.25in /  1024.3hPa Calm     97% 0.01in /  0.25mm meteobridge W/m2
23:04 46.8 °F /  8.2 °C 46 °F /  7.8 °C 30.25in /  1024.3hPa Calm     97% 0.01in /  0.25mm meteobridge W/m2
23:09 46.8 °F /  8.2 °C 46 °F /  7.8 °C 30.25in /  1024.3hPa Calm     97% 0.01in /  0.25mm meteobridge W/m2
23:14 46.6 °F /  8.1 °C 45.9 °F /  7.7 °C 30.25in /  1024.3hPa Calm     97% 0.01in /  0.25mm meteobridge W/m2
23:19 46.6 °F /  8.1 °C 45.9 °F /  7.7 °C 30.24in /  1023.9hPa Calm     97% 0.01in /  0.25mm meteobridge W/m2
23:24 46.8 °F /  8.2 °C 46 °F /  7.8 °C 30.24in /  1023.9hPa Calm     97% 0.01in /  0.25mm meteobridge W/m2
23:29 46.8 °F /  8.2 °C 46 °F /  7.8 °C 30.24in /  1023.9hPa Calm     97% 0.01in /  0.25mm meteobridge W/m2
23:34 46.8 °F /  8.2 °C 46 °F /  7.8 °C 30.23in /  1023.6hPa Calm     97% 0.01in /  0.25mm meteobridge W/m2
23:39 46.8 °F /  8.2 °C 46 °F /  7.8 °C 30.23in /  1023.6hPa Calm     97% 0.02in /  0.51mm meteobridge W/m2
23:44 46.9 °F /  8.3 °C 46.2 °F /  7.9 °C 30.24in /  1023.9hPa Calm     97% 0.02in /  0.51mm meteobridge W/m2
23:49 46.9 °F /  8.3 °C 46.2 °F /  7.9 °C 30.24in /  1023.9hPa Calm     97% 0.01in /  0.25mm meteobridge W/m2
23:54 46.9 °F /  8.3 °C 46.2 °F /  7.9 °C 30.25in /  1024.3hPa Calm     97% 0.02in /  0.51mm meteobridge W/m2
23:58 46.9 °F /  8.3 °C 46.2 °F /  7.9 °C 30.24in /  1023.9hPa Calm     97% 0.02in /  0.51mm meteobridge W/m2
EllijayWeather
Compliments of Weather Underground - 2.5 mb